Terminal Aerodrome Forecast
Issued by NWS

Home | Current Version | Previous Version | Text Only | Print | Product List | Glossary On
Versions: 1 2 3 4 5 6 7 8 9 10 11 12 13
000
FTUS45 KTFX 201700
TAFLWT
TAF
KLWT 201720Z 2018/2118 25010KT P6SM FEW100 BKN150
     FM202100 23011G17KT P6SM SCT060 BKN090
     FM211000 25015G23KT P6SM VCSH SCT025 OVC050=

USA.gov is the U.S. government's official web portal to all federal, state and local government web resources and services.